createdAt,value
2023-04-26T00:01:08.231Z,97773.75
2023-04-26T00:03:34.873Z,97777.53
2023-04-26T00:06:08.648Z,97777.19
2023-04-26T00:08:35.262Z,97782.28
2023-04-26T00:11:01.877Z,97782.00
2023-04-26T00:13:28.436Z,97780.78
2023-04-26T00:15:54.960Z,97783.75
2023-04-26T00:18:21.743Z,97786.84
2023-04-26T00:20:48.231Z,97789.22
2023-04-26T00:23:14.725Z,97787.88
2023-04-26T00:25:41.253Z,97794.53
2023-04-26T00:28:07.814Z,97791.59
2023-04-26T00:30:37.560Z,97791.84
2023-04-26T00:33:04.225Z,97797.22
2023-04-26T00:35:31.091Z,97789.34
2023-04-26T00:37:57.579Z,97789.94
2023-04-26T00:40:24.062Z,97783.63
2023-04-26T00:42:56.960Z,97787.28
2023-04-26T00:45:23.278Z,97781.28
2023-04-26T00:47:49.883Z,97769.72
2023-04-26T00:50:16.697Z,97779.50
2023-04-26T00:52:43.530Z,97783.38
2023-04-26T00:55:10.110Z,97785.28
2023-04-26T00:57:36.673Z,97783.47
2023-04-26T01:00:03.251Z,97791.94
2023-04-26T01:02:29.849Z,97781.66
2023-04-26T01:04:56.509Z,97782.81
2023-04-26T01:07:23.511Z,97786.84
2023-04-26T01:09:50.708Z,97796.88
2023-04-26T01:12:17.336Z,97793.06
2023-04-26T01:14:44.285Z,97796.31
2023-04-26T01:17:10.845Z,97802.63
2023-04-26T01:19:37.535Z,97808.81
2023-04-26T01:22:04.296Z,97800.97
2023-04-26T01:24:30.831Z,97803.31
2023-04-26T01:26:58.123Z,97798.75
2023-04-26T01:29:24.593Z,97802.31
2023-04-26T01:31:51.110Z,97800.56
2023-04-26T01:34:17.662Z,97796.44
2023-04-26T01:36:44.147Z,97803.97
2023-04-26T01:39:10.654Z,97798.59
2023-04-26T01:41:37.164Z,97802.88
2023-04-26T01:44:03.885Z,97802.84
2023-04-26T01:46:30.440Z,97798.44
2023-04-26T01:48:57.401Z,97804.59
2023-04-26T01:51:23.902Z,97807.22
2023-04-26T01:53:50.424Z,97806.50
2023-04-26T01:56:17.707Z,97813.88
2023-04-26T01:58:44.247Z,97823.00
2023-04-26T02:01:11.168Z,97820.59
2023-04-26T02:03:37.849Z,97817.97
2023-04-26T02:06:04.404Z,97818.06
2023-04-26T02:08:30.932Z,97817.72
2023-04-26T02:10:57.560Z,97814.84
2023-04-26T02:13:24.675Z,97825.59
2023-04-26T02:15:51.473Z,97819.13
2023-04-26T02:18:21.734Z,97820.34
2023-04-26T02:20:48.273Z,97825.94
2023-04-26T02:23:14.729Z,97820.28
2023-04-26T02:25:42.030Z,97819.09
2023-04-26T02:28:08.515Z,97819.34
2023-04-26T02:30:34.954Z,97827.00
2023-04-26T02:33:02.576Z,97821.63
2023-04-26T02:35:29.116Z,97822.97
2023-04-26T02:37:55.573Z,97824.97
2023-04-26T02:40:22.140Z,97828.88
2023-04-26T02:42:48.680Z,97826.97
2023-04-26T02:45:15.141Z,97819.81
2023-04-26T02:47:41.662Z,97827.13
2023-04-26T02:50:09.066Z,97826.03
2023-04-26T02:52:36.369Z,97827.69
2023-04-26T02:55:06.410Z,97826.56
2023-04-26T02:57:32.948Z,97824.69
2023-04-26T02:59:59.490Z,97818.63
2023-04-26T03:02:26.537Z,97827.16
2023-04-26T03:04:53.686Z,97821.88
2023-04-26T03:07:20.234Z,97820.22
2023-04-26T03:09:46.707Z,97823.88
2023-04-26T03:12:13.207Z,97826.34
2023-04-26T03:14:39.726Z,97824.97
2023-04-26T03:17:06.301Z,97827.41
2023-04-26T03:19:32.865Z,97832.22
2023-04-26T03:21:59.370Z,97836.88
2023-04-26T03:24:26.739Z,97841.78
2023-04-26T03:26:53.201Z,97838.44
2023-04-26T03:29:19.669Z,97836.31
2023-04-26T03:31:46.265Z,97835.69
2023-04-26T03:34:12.771Z,97835.63
2023-04-26T03:36:39.873Z,97839.84
2023-04-26T03:39:06.693Z,97840.34
2023-04-26T03:41:33.574Z,97843.97
2023-04-26T03:44:00.161Z,97839.91
2023-04-26T03:46:26.787Z,97834.91
2023-04-26T03:48:53.523Z,97839.91
2023-04-26T03:51:20.836Z,97845.66
2023-04-26T03:53:48.708Z,97851.16
2023-04-26T03:56:15.359Z,97850.63
2023-04-26T03:58:42.184Z,97852.34
2023-04-26T04:01:08.754Z,97854.13
2023-04-26T04:03:36.656Z,97852.91
2023-04-26T04:06:05.316Z,97860.34
2023-04-26T04:08:32.175Z,97854.28
2023-04-26T04:10:58.630Z,97857.47
2023-04-26T04:13:25.144Z,97860.81
2023-04-26T04:15:51.840Z,97866.66
2023-04-26T04:18:18.335Z,97865.22
2023-04-26T04:20:44.900Z,97859.72
2023-04-26T04:23:11.412Z,97865.22
2023-04-26T04:25:38.894Z,97861.97
2023-04-26T04:28:05.389Z,97864.03
2023-04-26T04:30:32.215Z,97869.88
2023-04-26T04:33:00.134Z,97875.63
2023-04-26T04:35:29.022Z,97875.16
2023-04-26T04:37:58.886Z,97887.19
2023-04-26T04:40:25.847Z,97887.31
2023-04-26T04:42:53.375Z,97883.38
2023-04-26T04:45:20.188Z,97888.63
2023-04-26T04:47:47.491Z,97887.56
2023-04-26T04:50:14.590Z,97882.19
2023-04-26T04:52:41.163Z,97886.72
2023-04-26T04:55:07.833Z,97894.59
2023-04-26T04:57:34.396Z,97905.34
2023-04-26T05:00:09.827Z,97895.25
2023-04-26T05:02:37.153Z,97886.16
2023-04-26T05:05:05.028Z,97900.69
2023-04-26T05:07:32.431Z,97885.59
2023-04-26T05:09:59.569Z,97898.78
2023-04-26T05:12:26.349Z,97911.81
2023-04-26T05:14:53.145Z,97903.84
2023-04-26T05:17:19.726Z,97908.63
2023-04-26T05:19:46.182Z,97902.06
2023-04-26T05:22:21.169Z,97910.97
2023-04-26T05:24:47.836Z,97904.94
2023-04-26T05:27:14.554Z,97907.19
2023-04-26T05:29:41.635Z,97898.28
2023-04-26T05:32:08.403Z,97902.25
2023-04-26T05:34:35.118Z,97902.53
2023-04-26T05:37:01.652Z,97898.41
2023-04-26T05:39:28.139Z,97896.19
2023-04-26T05:41:54.659Z,97893.84
2023-04-26T05:44:21.112Z,97902.34
2023-04-26T05:46:47.580Z,97910.66
2023-04-26T05:49:14.154Z,97912.56
2023-04-26T05:51:40.866Z,97913.53
2023-04-26T05:54:07.541Z,97906.03
2023-04-26T05:56:34.035Z,97899.97
2023-04-26T05:59:00.599Z,97902.78
2023-04-26T06:01:27.728Z,97897.53
2023-04-26T06:03:58.118Z,97903.28
2023-04-26T06:06:28.244Z,97909.00
2023-04-26T06:08:54.937Z,97915.50
2023-04-26T06:11:21.638Z,97911.47
2023-04-26T06:13:48.278Z,97914.53
2023-04-26T06:16:14.808Z,97915.66
2023-04-26T06:18:41.585Z,97916.78
2023-04-26T06:21:08.444Z,97917.31
2023-04-26T06:23:34.960Z,97921.50
2023-04-26T06:26:01.450Z,97920.09
2023-04-26T06:28:28.081Z,97923.16
2023-04-26T06:30:54.632Z,97930.66
2023-04-26T06:33:21.165Z,97927.03
2023-04-26T06:35:47.701Z,97929.09
2023-04-26T06:38:14.176Z,97929.81
2023-04-26T06:40:40.720Z,97939.22
2023-04-26T06:43:07.242Z,97946.16
2023-04-26T06:45:33.781Z,97945.38
2023-04-26T06:48:01.576Z,97948.41
2023-04-26T06:50:28.108Z,97952.47
2023-04-26T06:52:54.604Z,97960.41
2023-04-26T06:55:21.239Z,97955.13
2023-04-26T06:57:47.752Z,97951.38
2023-04-26T07:00:14.648Z,97953.69
2023-04-26T07:02:41.333Z,97955.34
2023-04-26T07:05:08.904Z,97954.63
2023-04-26T07:07:36.032Z,97949.75
2023-04-26T07:10:03.437Z,97949.66
2023-04-26T07:12:29.970Z,97945.94
2023-04-26T07:14:57.649Z,97959.78
2023-04-26T07:17:24.178Z,97951.72
2023-04-26T07:19:50.714Z,97952.31
2023-04-26T07:22:17.210Z,97942.25
2023-04-26T07:24:43.675Z,97944.34
2023-04-26T07:27:10.865Z,97944.16
2023-04-26T07:29:37.340Z,97944.97
2023-04-26T07:32:04.026Z,97946.63
2023-04-26T07:34:30.620Z,97954.19
2023-04-26T07:36:57.398Z,97954.19
2023-04-26T07:39:24.233Z,97946.72
2023-04-26T07:41:50.933Z,97952.50
2023-04-26T07:44:17.452Z,97946.00
2023-04-26T07:46:43.956Z,97954.34
2023-04-26T07:49:10.476Z,97947.84
2023-04-26T07:51:37.181Z,97948.88
2023-04-26T07:54:03.733Z,97946.19
2023-04-26T07:56:30.265Z,97948.28
2023-04-26T07:58:56.707Z,97940.34
2023-04-26T08:01:23.190Z,97953.16
2023-04-26T08:03:50.243Z,97942.31
2023-04-26T08:06:17.144Z,97940.72
2023-04-26T08:08:50.498Z,97934.06
2023-04-26T08:11:17.243Z,97942.47
2023-04-26T08:13:46.523Z,97941.25
2023-04-26T08:16:13.207Z,97944.16
2023-04-26T08:18:40.155Z,97938.53
2023-04-26T08:21:06.921Z,97941.66
2023-04-26T08:23:35.784Z,97944.56
2023-04-26T08:26:02.782Z,97940.88
2023-04-26T08:28:29.233Z,97932.59
2023-04-26T08:30:55.824Z,97932.38
2023-04-26T08:33:22.883Z,97942.00
2023-04-26T08:35:49.804Z,97940.09
2023-04-26T08:38:16.394Z,97942.59
2023-04-26T08:40:42.877Z,97935.50
2023-04-26T08:43:09.350Z,97938.22
2023-04-26T08:45:35.979Z,97932.94
2023-04-26T08:48:04.777Z,97939.16
2023-04-26T08:50:33.434Z,97951.31
2023-04-26T08:52:59.945Z,97944.16
2023-04-26T08:55:26.435Z,97938.38
2023-04-26T08:57:52.920Z,97935.78
2023-04-26T09:00:19.895Z,97941.53
2023-04-26T09:02:48.440Z,97927.34
2023-04-26T09:05:15.228Z,97928.91
2023-04-26T09:07:44.318Z,97928.31
2023-04-26T09:10:11.644Z,97919.25
2023-04-26T09:12:38.199Z,97928.72
2023-04-26T09:15:07.213Z,97932.38
2023-04-26T09:17:37.975Z,97931.25
2023-04-26T09:20:23.938Z,97919.44
2023-04-26T09:22:54.495Z,97915.88
2023-04-26T09:25:31.259Z,97913.44
2023-04-26T09:27:58.061Z,97919.81
2023-04-26T09:30:24.703Z,97934.97
2023-04-26T09:32:52.547Z,97932.66
2023-04-26T09:35:32.046Z,97927.47
2023-04-26T09:38:03.369Z,97935.25
2023-04-26T09:40:42.814Z,97921.44
2023-04-26T09:43:14.442Z,97928.66
2023-04-26T09:45:54.631Z,97921.84
2023-04-26T09:48:32.116Z,97906.53
2023-04-26T09:51:04.814Z,97923.19
2023-04-26T09:53:38.348Z,97929.44
2023-04-26T09:56:11.562Z,97939.22
2023-04-26T09:58:39.500Z,97921.16
2023-04-26T10:01:07.312Z,97925.50
2023-04-26T10:03:37.720Z,97923.19
2023-04-26T10:06:04.940Z,97929.81
2023-04-26T10:08:32.838Z,97918.13
2023-04-26T10:11:01.478Z,97915.78
2023-04-26T10:13:28.191Z,97910.00
2023-04-26T10:15:54.702Z,97918.47
2023-04-26T10:18:21.298Z,97918.41
2023-04-26T10:20:51.236Z,97907.88
2023-04-26T10:23:22.475Z,97912.69
2023-04-26T10:25:49.547Z,97906.88
2023-04-26T10:28:16.174Z,97898.22
2023-04-26T10:30:59.060Z,97920.69
2023-04-26T10:33:26.110Z,97914.38
2023-04-26T10:36:13.958Z,97908.06
2023-04-26T10:38:41.991Z,97902.91
2023-04-26T10:41:34.240Z,97906.50
2023-04-26T10:44:22.424Z,97899.25
2023-04-26T10:46:52.734Z,97899.22
2023-04-26T10:49:20.025Z,97898.22
2023-04-26T10:52:10.042Z,97887.59
2023-04-26T10:54:55.724Z,97893.06
2023-04-26T10:57:22.960Z,97881.59
2023-04-26T11:00:13.773Z,97880.63
2023-04-26T11:02:53.332Z,97891.59
2023-04-26T11:05:36.131Z,97881.59
2023-04-26T11:08:15.565Z,97886.41
2023-04-26T11:10:42.465Z,97887.88
2023-04-26T11:13:08.981Z,97877.91
2023-04-26T11:15:35.636Z,97869.97
2023-04-26T11:18:02.867Z,97879.88
2023-04-26T11:20:32.594Z,97880.78
2023-04-26T11:22:59.517Z,97878.78
2023-04-26T11:25:28.050Z,97876.72
2023-04-26T11:28:12.588Z,97865.50
2023-04-26T11:30:39.071Z,97870.72
2023-04-26T11:33:05.660Z,97871.31
2023-04-26T11:35:35.587Z,97869.25
2023-04-26T11:38:04.123Z,97882.88
2023-04-26T11:40:31.473Z,97868.09
2023-04-26T11:43:02.503Z,97881.44
2023-04-26T11:45:29.029Z,97874.72
2023-04-26T11:47:55.790Z,97866.53
2023-04-26T11:50:26.643Z,97873.31
2023-04-26T11:52:56.612Z,97871.97
2023-04-26T11:55:25.145Z,97867.06
2023-04-26T11:57:51.688Z,97863.91
2023-04-26T12:00:18.772Z,97864.34
2023-04-26T12:02:46.610Z,97866.31
2023-04-26T12:05:27.003Z,97871.97
2023-04-26T12:07:55.333Z,97857.50
2023-04-26T12:10:24.463Z,97871.22
2023-04-26T12:12:51.148Z,97875.94
2023-04-26T12:15:18.615Z,97873.91
2023-04-26T12:17:54.650Z,97872.38
2023-04-26T12:20:29.765Z,97864.78
2023-04-26T12:22:59.912Z,97861.69
2023-04-26T12:25:26.420Z,97862.28
2023-04-26T12:27:53.037Z,97854.72
2023-04-26T12:30:19.706Z,97859.63
2023-04-26T12:32:46.451Z,97868.16
2023-04-26T12:35:13.209Z,97852.38
2023-04-26T12:37:39.766Z,97859.06
2023-04-26T12:40:07.516Z,97844.56
2023-04-26T12:42:34.060Z,97840.19
2023-04-26T12:45:00.634Z,97838.72
2023-04-26T12:47:27.154Z,97842.97
2023-04-26T12:49:53.682Z,97842.28
2023-04-26T12:52:20.484Z,97831.44
2023-04-26T12:54:48.876Z,97839.50
2023-04-26T12:57:15.589Z,97834.13
2023-04-26T12:59:42.251Z,97839.34
2023-04-26T13:02:10.101Z,97837.09
2023-04-26T13:04:40.181Z,97858.53
2023-04-26T13:07:08.239Z,97842.38
2023-04-26T13:09:35.049Z,97846.59
2023-04-26T13:12:01.543Z,97847.44
2023-04-26T13:14:28.077Z,97828.22
2023-04-26T13:16:54.580Z,97829.63
2023-04-26T13:19:21.123Z,97823.00
2023-04-26T13:21:47.696Z,97820.38
2023-04-26T13:24:14.181Z,97813.81
2023-04-26T13:26:40.657Z,97814.84
2023-04-26T13:29:07.185Z,97818.94
2023-04-26T13:31:33.841Z,97832.81
2023-04-26T13:34:01.468Z,97824.38
2023-04-26T13:36:28.006Z,97814.50
2023-04-26T13:38:54.630Z,97811.97
2023-04-26T13:41:22.400Z,97820.41
2023-04-26T13:43:48.990Z,97815.06
2023-04-26T13:46:15.477Z,97804.34
2023-04-26T13:48:42.027Z,97814.66
2023-04-26T13:51:08.579Z,97811.91
2023-04-26T13:53:35.076Z,97814.50
2023-04-26T13:56:01.909Z,97804.97
2023-04-26T13:58:28.414Z,97808.25
2023-04-26T14:00:54.863Z,97807.38
2023-04-26T14:03:21.678Z,97806.00
2023-04-26T14:05:49.239Z,97809.34
2023-04-26T14:08:15.861Z,97802.69
2023-04-26T14:10:42.585Z,97804.59
2023-04-26T14:13:09.306Z,97801.84
2023-04-26T14:15:36.150Z,97800.38
2023-04-26T14:18:02.853Z,97807.81
2023-04-26T14:20:29.369Z,97808.41
2023-04-26T14:22:55.992Z,97807.41
2023-04-26T14:25:22.470Z,97798.59
2023-04-26T14:27:49.073Z,97806.84
2023-04-26T14:30:15.602Z,97805.75
2023-04-26T14:32:42.128Z,97798.50
2023-04-26T14:35:08.917Z,97801.34
2023-04-26T14:37:35.603Z,97793.41
2023-04-26T14:40:02.135Z,97791.19
2023-04-26T14:42:29.333Z,97799.28
2023-04-26T14:44:58.752Z,97794.59
2023-04-26T14:47:25.304Z,97806.59
2023-04-26T14:49:52.000Z,97793.84
2023-04-26T14:52:18.439Z,97790.72
2023-04-26T14:54:44.912Z,97809.19
2023-04-26T14:57:11.822Z,97809.16
2023-04-26T14:59:38.282Z,97802.47
2023-04-26T15:02:05.092Z,97787.19
2023-04-26T15:04:32.131Z,97795.59
2023-04-26T15:06:58.878Z,97798.84
2023-04-26T15:09:25.650Z,97786.59
2023-04-26T15:11:52.270Z,97782.13
2023-04-26T15:14:18.773Z,97792.66
2023-04-26T15:16:45.349Z,97796.47
2023-04-26T15:19:11.908Z,97805.34
2023-04-26T15:21:38.382Z,97794.66
2023-04-26T15:24:05.355Z,97798.34
2023-04-26T15:26:32.050Z,97798.69
2023-04-26T15:28:58.506Z,97792.88
2023-04-26T15:31:25.031Z,97791.50
2023-04-26T15:33:51.846Z,97787.44
2023-04-26T15:36:20.204Z,97788.16
2023-04-26T15:38:48.390Z,97792.50
2023-04-26T15:41:15.049Z,97786.22
2023-04-26T15:43:41.581Z,97787.59
2023-04-26T15:46:08.168Z,97792.59
2023-04-26T15:48:34.728Z,97791.84
2023-04-26T15:51:04.865Z,97798.06
2023-04-26T15:53:31.326Z,97789.63
2023-04-26T15:55:58.342Z,97788.47
2023-04-26T15:58:24.818Z,97793.34
2023-04-26T16:00:51.656Z,97786.78
2023-04-26T16:03:18.379Z,97794.09
2023-04-26T16:05:45.099Z,97803.41
2023-04-26T16:08:11.592Z,97797.00
2023-04-26T16:10:38.492Z,97781.94
2023-04-26T16:13:05.054Z,97779.16
2023-04-26T16:15:31.631Z,97789.31
2023-04-26T16:17:58.208Z,97784.31
2023-04-26T16:20:24.742Z,97787.81
2023-04-26T16:22:52.025Z,97788.16
2023-04-26T16:25:18.521Z,97779.88
2023-04-26T16:27:45.016Z,97791.09
2023-04-26T16:30:12.127Z,97794.13
2023-04-26T16:32:38.661Z,97795.66
2023-04-26T16:35:06.364Z,97796.41
2023-04-26T16:37:32.846Z,97801.78
2023-04-26T16:39:59.457Z,97792.84
2023-04-26T16:42:26.294Z,97794.16
2023-04-26T16:44:54.678Z,97794.13
2023-04-26T16:47:21.330Z,97793.47
2023-04-26T16:49:47.801Z,97798.91
2023-04-26T16:52:14.288Z,97795.47
2023-04-26T16:54:40.921Z,97793.50
2023-04-26T16:57:08.924Z,97793.16
2023-04-26T16:59:35.370Z,97794.56
2023-04-26T17:02:02.265Z,97798.59
2023-04-26T17:04:28.885Z,97796.94
2023-04-26T17:06:55.581Z,97802.97
2023-04-26T17:09:22.096Z,97805.19
2023-04-26T17:11:49.888Z,97796.19
2023-04-26T17:14:16.432Z,97799.94
2023-04-26T17:16:42.945Z,97802.91
2023-04-26T17:19:09.468Z,97816.94
2023-04-26T17:21:36.170Z,97812.63
2023-04-26T17:24:03.673Z,97809.34
2023-04-26T17:26:30.357Z,97817.00
2023-04-26T17:28:56.858Z,97811.72
2023-04-26T17:31:23.417Z,97819.88
2023-04-26T17:33:50.060Z,97818.06
2023-04-26T17:36:17.748Z,97818.41
2023-04-26T17:38:44.321Z,97821.94
2023-04-26T17:41:14.134Z,97822.94
2023-04-26T17:43:40.768Z,97826.75
2023-04-26T17:46:07.559Z,97826.41
2023-04-26T17:48:34.133Z,97827.25
2023-04-26T17:51:00.836Z,97823.94
2023-04-26T17:53:27.521Z,97822.09
2023-04-26T17:55:54.080Z,97824.09
2023-04-26T17:58:20.557Z,97833.22
2023-04-26T18:00:48.396Z,97832.69
2023-04-26T18:03:14.976Z,97826.44
2023-04-26T18:05:41.612Z,97828.09
2023-04-26T18:08:08.248Z,97826.44
2023-04-26T18:10:34.750Z,97829.72
2023-04-26T18:13:01.700Z,97839.69
2023-04-26T18:15:28.273Z,97839.84
2023-04-26T18:17:54.903Z,97847.59
2023-04-26T18:20:21.594Z,97847.72
2023-04-26T18:22:48.227Z,97852.13
2023-04-26T18:25:14.824Z,97849.72
2023-04-26T18:27:41.289Z,97854.94
2023-04-26T18:30:08.767Z,97857.81
2023-04-26T18:32:35.397Z,97851.94
2023-04-26T18:35:04.948Z,97866.75
2023-04-26T18:37:31.631Z,97866.50
2023-04-26T18:39:58.148Z,97855.47
2023-04-26T18:42:24.692Z,97863.81
2023-04-26T18:44:51.443Z,97867.44
2023-04-26T18:47:18.076Z,97871.97
2023-04-26T18:49:44.543Z,97872.66
2023-04-26T18:52:11.130Z,97862.66
2023-04-26T18:54:38.951Z,97870.84
2023-04-26T18:57:05.634Z,97874.16
2023-04-26T18:59:32.271Z,97877.59
2023-04-26T19:01:59.050Z,97881.84
2023-04-26T19:04:26.368Z,97891.63
2023-04-26T19:06:53.340Z,97889.41
2023-04-26T19:09:19.867Z,97894.47
2023-04-26T19:11:46.546Z,97890.34
2023-04-26T19:14:13.419Z,97899.06
2023-04-26T19:16:39.912Z,97901.34
2023-04-26T19:19:06.416Z,97899.06
2023-04-26T19:21:33.741Z,97907.34
2023-04-26T19:24:00.649Z,97909.88
2023-04-26T19:26:27.167Z,97903.09
2023-04-26T19:28:55.710Z,97910.06
2023-04-26T19:31:22.545Z,97911.00
2023-04-26T19:33:49.018Z,97913.31
2023-04-26T19:36:15.668Z,97911.19
2023-04-26T19:38:42.154Z,97920.28
2023-04-26T19:41:08.707Z,97918.91
2023-04-26T19:43:35.469Z,97923.69
2023-04-26T19:46:01.956Z,97919.91
2023-04-26T19:48:28.400Z,97920.06
2023-04-26T19:50:54.909Z,97922.72
2023-04-26T19:53:21.409Z,97921.19
2023-04-26T19:55:47.900Z,97926.47
2023-04-26T19:58:14.478Z,97922.41
2023-04-26T20:00:41.183Z,97927.63
2023-04-26T20:03:07.993Z,97925.25
2023-04-26T20:05:34.691Z,97930.00
2023-04-26T20:08:01.534Z,97933.88
2023-04-26T20:10:32.023Z,97930.25
2023-04-26T20:12:59.350Z,97929.56
2023-04-26T20:15:26.330Z,97931.91
2023-04-26T20:17:52.833Z,97934.81
2023-04-26T20:20:19.761Z,97938.38
2023-04-26T20:22:46.266Z,97942.81
2023-04-26T20:25:12.936Z,97936.09
2023-04-26T20:27:39.456Z,97938.59
2023-04-26T20:30:07.112Z,97936.66
2023-04-26T20:32:33.725Z,97941.63
2023-04-26T20:35:00.421Z,97942.13
2023-04-26T20:37:26.964Z,97943.94
2023-04-26T20:39:53.506Z,97939.56
2023-04-26T20:42:20.026Z,97947.03
2023-04-26T20:44:46.553Z,97943.41
2023-04-26T20:47:13.133Z,97943.16
2023-04-26T20:49:39.611Z,97945.34
2023-04-26T20:52:06.206Z,97937.50
2023-04-26T20:54:32.777Z,97947.81
2023-04-26T20:56:59.313Z,97950.69
2023-04-26T20:59:26.044Z,97953.94
2023-04-26T21:01:53.117Z,97954.53
2023-04-26T21:04:19.994Z,97960.38
2023-04-26T21:06:46.576Z,97961.59
2023-04-26T21:09:13.376Z,97951.47
2023-04-26T21:11:39.891Z,97961.78
2023-04-26T21:14:07.119Z,97956.06
2023-04-26T21:16:33.610Z,97958.22
2023-04-26T21:19:00.189Z,97968.75
2023-04-26T21:21:28.281Z,97964.97
2023-04-26T21:23:54.878Z,97963.19
2023-04-26T21:26:21.474Z,97962.41
2023-04-26T21:28:48.192Z,97971.16
2023-04-26T21:31:14.743Z,97972.38
2023-04-26T21:33:41.392Z,97968.00
2023-04-26T21:36:08.003Z,97978.53
2023-04-26T21:38:34.817Z,97971.19
2023-04-26T21:41:01.407Z,97969.97
2023-04-26T21:43:27.905Z,97977.13
2023-04-26T21:45:58.074Z,97973.78
2023-04-26T21:48:26.106Z,97980.97
2023-04-26T21:50:52.610Z,97980.19
2023-04-26T21:53:19.103Z,97980.97
2023-04-26T21:55:51.058Z,97979.31
2023-04-26T21:58:17.553Z,97986.06
2023-04-26T22:00:44.107Z,97978.00
2023-04-26T22:03:10.831Z,97986.81
2023-04-26T22:05:37.560Z,97985.34
2023-04-26T22:08:04.228Z,97981.25
2023-04-26T22:10:31.119Z,97978.59
2023-04-26T22:12:57.647Z,97988.44
2023-04-26T22:15:24.131Z,97988.13
2023-04-26T22:17:50.724Z,97987.97
2023-04-26T22:20:17.345Z,97979.38
2023-04-26T22:22:43.817Z,97987.66
2023-04-26T22:25:10.575Z,97972.63
2023-04-26T22:27:37.034Z,97988.94
2023-04-26T22:30:16.310Z,97986.50
2023-04-26T22:32:53.539Z,97983.16
2023-04-26T22:35:20.418Z,97985.34
2023-04-26T22:37:47.596Z,97991.72
2023-04-26T22:40:14.761Z,97990.44
2023-04-26T22:42:41.350Z,97990.75
2023-04-26T22:45:08.530Z,97992.94
2023-04-26T22:47:35.129Z,97992.78
2023-04-26T22:50:01.678Z,97992.69
2023-04-26T22:52:31.340Z,97997.63
2023-04-26T22:54:59.715Z,97992.16
2023-04-26T22:57:26.196Z,97991.38
2023-04-26T22:59:52.691Z,97995.56
2023-04-26T23:02:20.041Z,97989.47
2023-04-26T23:04:46.751Z,97998.41
2023-04-26T23:07:13.248Z,97990.59
2023-04-26T23:09:39.876Z,98006.41
2023-04-26T23:12:06.418Z,98007.19
2023-04-26T23:14:32.906Z,98007.44
2023-04-26T23:16:59.479Z,98003.31
2023-04-26T23:19:26.681Z,98009.25
2023-04-26T23:21:53.132Z,97998.97
2023-04-26T23:24:19.677Z,98003.69
2023-04-26T23:26:46.235Z,98009.25
2023-04-26T23:29:12.892Z,98001.38
2023-04-26T23:31:39.689Z,98004.75
2023-04-26T23:34:06.224Z,98001.50
2023-04-26T23:36:33.371Z,98004.75
2023-04-26T23:38:59.969Z,98000.47
2023-04-26T23:41:26.418Z,98006.84
2023-04-26T23:43:52.896Z,98006.38
2023-04-26T23:46:19.467Z,98006.31
2023-04-26T23:48:46.009Z,97996.03
2023-04-26T23:51:12.506Z,97996.78
2023-04-26T23:53:39.675Z,97997.75
2023-04-26T23:56:07.195Z,97998.13
2023-04-26T23:58:33.798Z,97994.88
